Time;durP1;ratioP1;P1;durP2;ratioP2;P2;SDS_P1;SDS_P2;PMS_P1;PMS_P2;Temp;Humidity;BMP_temperature;BMP_pressure;BME280_temperature;BME280_humidity;BME280_pressure;Samples;Min_cycle;Max_cycle;Signal;HPM_P1;HPM_P2
2022/05/17 00:01:46;;;;;;;7.80;5.20;;;;;;;;;;5022428;28;20268;-51
2022/05/17 00:04:11;;;;;;;9.10;4.70;;;;;;;;;;5024865;28;21735;-51
2022/05/17 00:06:36;;;;;;;6.40;4.57;;;;;;;;;;5021549;28;20280;-50
2022/05/17 00:09:02;;;;;;;6.77;4.90;;;;;;;;;;5021006;28;20023;-50
2022/05/17 00:11:28;;;;;;;6.93;4.20;;;;;;;;;;5021997;28;20071;-51
2022/05/17 00:13:53;;;;;;;6.30;4.75;;;;;;;;;;5023513;28;20335;-50
2022/05/17 00:16:18;;;;;;;6.70;4.40;;;;;;;;;;5026290;28;20512;-51
2022/05/17 00:18:44;;;;;;;6.50;4.90;;;;;;;;;;5021247;28;20052;-51
2022/05/17 00:21:09;;;;;;;6.32;4.25;;;;;;;;;;5018943;28;21063;-51
2022/05/17 00:23:36;;;;;;;6.53;4.80;;;;;;;;;;5024274;28;20021;-50
2022/05/17 00:26:02;;;;;;;9.25;4.50;;;;;;;;;;5023084;28;20326;-51
2022/05/17 00:28:27;;;;;;;7.43;4.57;;;;;;;;;;5038285;28;20037;-50
2022/05/17 00:30:53;;;;;;;8.10;4.95;;;;;;;;;;5018077;28;20041;-51
2022/05/17 00:33:18;;;;;;;7.25;5.10;;;;;;;;;;5020586;28;20059;-50
2022/05/17 00:35:45;;;;;;;8.10;4.70;;;;;;;;;;5023212;28;20021;-51
2022/05/17 00:38:10;;;;;;;6.78;5.20;;;;;;;;;;5020656;28;20021;-51
2022/05/17 00:40:35;;;;;;;6.80;4.70;;;;;;;;;;5020814;28;20014;-51
2022/05/17 00:43:01;;;;;;;6.45;4.25;;;;;;;;;;5020231;28;20026;-51
2022/05/17 00:45:26;;;;;;;6.87;4.50;;;;;;;;;;5021331;28;20017;-50
2022/05/17 00:48:01;;;;;;;8.02;4.68;;;;;;;;;;5035208;28;20030;-51
2022/05/17 00:50:28;;;;;;;5.85;4.40;;;;;;;;;;5018402;28;20049;-51
2022/05/17 00:52:54;;;;;;;6.40;4.60;;;;;;;;;;5021092;28;20026;-51
2022/05/17 00:55:21;;;;;;;6.93;4.10;;;;;;;;;;5024001;28;20025;-50
2022/05/17 00:57:51;;;;;;;5.90;4.10;;;;;;;;;;5021425;28;20473;-50
2022/05/17 01:00:16;;;;;;;;;;;;;;;;;;5037896;28;20026;-51
2022/05/17 01:02:42;;;;;;;7.93;4.13;;;;;;;;;;5022805;28;19901;-51
2022/05/17 01:05:07;;;;;;;7.70;4.28;;;;;;;;;;5039279;28;20268;-51
2022/05/17 01:07:42;;;;;;;5.57;3.83;;;;;;;;;;5032999;28;20532;-50
2022/05/17 01:10:08;;;;;;;6.95;4.10;;;;;;;;;;5014790;28;20018;-51
2022/05/17 01:12:34;;;;;;;6.85;4.40;;;;;;;;;;5022598;28;20010;-50
2022/05/17 01:15:00;;;;;;;6.53;3.95;;;;;;;;;;5016874;28;20115;-51
2022/05/17 01:17:32;;;;;;;6.53;4.18;;;;;;;;;;5019257;28;20566;-50
2022/05/17 01:19:57;;;;;;;7.45;4.53;;;;;;;;;;5020945;28;20075;-51
2022/05/17 01:22:23;;;;;;;7.37;4.23;;;;;;;;;;5038300;28;20064;-51
2022/05/17 01:24:48;;;;;;;5.97;3.90;;;;;;;;;;5023437;28;20334;-50
2022/05/17 01:27:18;;;;;;;5.55;3.63;;;;;;;;;;5019037;28;20264;-50
2022/05/17 01:29:44;;;;;;;7.30;3.80;;;;;;;;;;5039510;28;20068;-50
2022/05/17 01:32:09;;;;;;;5.22;4.00;;;;;;;;;;5031177;28;20607;-51
2022/05/17 01:34:35;;;;;;;4.72;3.65;;;;;;;;;;5020301;28;20029;-51
2022/05/17 01:37:00;;;;;;;6.13;3.55;;;;;;;;;;5021372;28;20099;-51
2022/05/17 01:39:25;;;;;;;4.53;3.27;;;;;;;;;;5022154;28;20691;-51
2022/05/17 01:41:51;;;;;;;5.25;3.97;;;;;;;;;;5022179;28;20716;-51
2022/05/17 01:44:16;;;;;;;5.23;3.57;;;;;;;;;;5021381;28;20018;-50
2022/05/17 01:46:41;;;;;;;5.17;3.10;;;;;;;;;;5020103;28;20020;-51
2022/05/17 01:49:06;;;;;;;6.83;3.63;;;;;;;;;;5021062;28;20014;-51
2022/05/17 01:51:31;;;;;;;5.73;3.83;;;;;;;;;;5022550;28;20718;-51
2022/05/17 01:53:57;;;;;;;5.30;3.90;;;;;;;;;;5019809;28;20298;-51
2022/05/17 01:56:22;;;;;;;5.47;4.10;;;;;;;;;;5018760;28;20276;-51
2022/05/17 01:58:47;;;;;;;5.60;3.90;;;;;;;;;;5016474;28;20299;-51
2022/05/17 02:01:12;;;;;;;5.07;3.60;;;;;;;;;;5022274;28;20013;-51
2022/05/17 02:03:38;;;;;;;5.50;3.70;;;;;;;;;;5021563;28;20857;-50
2022/05/17 02:06:03;;;;;;;5.70;3.97;;;;;;;;;;5021553;28;20634;-50
2022/05/17 02:08:29;;;;;;;7.75;3.78;;;;;;;;;;5023191;28;20268;-50
2022/05/17 02:10:55;;;;;;;7.05;3.47;;;;;;;;;;5018732;28;20489;-51
2022/05/17 02:13:20;;;;;;;5.43;3.60;;;;;;;;;;5020418;28;20034;-51
2022/05/17 02:15:45;;;;;;;7.73;3.70;;;;;;;;;;5020338;28;21043;-51
2022/05/17 02:18:10;;;;;;;5.67;3.40;;;;;;;;;;5019827;28;20547;-51
2022/05/17 02:20:36;;;;;;;5.70;3.33;;;;;;;;;;5019114;28;20282;-51
2022/05/17 02:23:01;;;;;;;7.67;3.50;;;;;;;;;;5016685;28;20028;-51
2022/05/17 02:25:26;;;;;;;5.68;3.40;;;;;;;;;;5017180;28;20017;-52
2022/05/17 02:27:52;;;;;;;7.68;3.70;;;;;;;;;;5021240;28;20025;-51
2022/05/17 02:30:17;;;;;;;6.77;3.50;;;;;;;;;;5022380;28;20756;-51
2022/05/17 02:32:42;;;;;;;6.05;3.38;;;;;;;;;;5019102;28;20484;-51
2022/05/17 02:35:08;;;;;;;5.37;3.03;;;;;;;;;;5022311;28;20079;-51
2022/05/17 02:37:33;;;;;;;5.00;3.33;;;;;;;;;;5031895;28;20013;-52
2022/05/17 02:39:58;;;;;;;5.43;3.00;;;;;;;;;;5018846;28;20056;-51
2022/05/17 02:42:23;;;;;;;5.55;3.40;;;;;;;;;;5020767;28;20061;-51
2022/05/17 02:44:49;;;;;;;5.65;3.35;;;;;;;;;;5020874;28;20021;-52
2022/05/17 02:47:14;;;;;;;6.57;3.53;;;;;;;;;;5019298;28;20086;-52
2022/05/17 02:49:40;;;;;;;6.05;3.28;;;;;;;;;;5019875;28;20022;-51
2022/05/17 02:52:06;;;;;;;4.65;3.13;;;;;;;;;;5004162;28;20022;-51
2022/05/17 02:54:31;;;;;;;4.38;3.13;;;;;;;;;;5019082;28;20036;-51
2022/05/17 02:56:56;;;;;;;4.33;3.20;;;;;;;;;;5019180;28;20068;-51
2022/05/17 02:59:22;;;;;;;7.75;3.42;;;;;;;;;;5022009;28;20041;-51
2022/05/17 03:01:47;;;;;;;4.25;2.90;;;;;;;;;;5021124;28;20025;-51
2022/05/17 03:04:15;;;;;;;4.80;3.03;;;;;;;;;;5023452;28;20029;-51
2022/05/17 03:06:41;;;;;;;6.65;3.00;;;;;;;;;;5018326;28;20017;-51
2022/05/17 03:09:08;;;;;;;5.63;3.40;;;;;;;;;;5020307;28;20045;-51
2022/05/17 03:11:33;;;;;;;6.40;3.10;;;;;;;;;;5018975;28;20009;-51
2022/05/17 03:13:58;;;;;;;6.30;3.88;;;;;;;;;;5019066;28;20044;-51
2022/05/17 03:16:30;;;;;;;6.20;3.37;;;;;;;;;;5020713;28;20532;-51
2022/05/17 03:18:56;;;;;;;4.93;2.70;;;;;;;;;;5020195;28;20079;-51
2022/05/17 03:21:21;;;;;;;3.92;2.85;;;;;;;;;;5016297;28;20029;-51
2022/05/17 03:23:46;;;;;;;4.27;3.07;;;;;;;;;;5021438;28;20029;-51
2022/05/17 03:26:11;;;;;;;5.67;2.87;;;;;;;;;;5025302;28;20017;-51
2022/05/17 03:28:37;;;;;;;6.37;3.27;;;;;;;;;;5024996;28;20049;-51
2022/05/17 03:31:05;;;;;;;6.15;3.28;;;;;;;;;;5027522;28;20024;-52
2022/05/17 03:33:31;;;;;;;4.85;2.83;;;;;;;;;;5023149;28;20026;-51
2022/05/17 03:35:56;;;;;;;6.20;3.50;;;;;;;;;;5021071;28;20017;-51
2022/05/17 03:38:21;;;;;;;4.50;3.40;;;;;;;;;;5022650;28;20306;-51
2022/05/17 03:40:46;;;;;;;5.10;3.10;;;;;;;;;;5025105;28;20280;-51
2022/05/17 03:43:12;;;;;;;6.80;3.43;;;;;;;;;;5020991;28;20009;-51
2022/05/17 03:45:37;;;;;;;5.07;3.30;;;;;;;;;;5019074;28;20025;-51
2022/05/17 03:48:02;;;;;;;4.80;3.13;;;;;;;;;;5023416;28;20033;-51
2022/05/17 03:50:27;;;;;;;5.20;3.20;;;;;;;;;;5022269;28;20465;-51
2022/05/17 03:52:53;;;;;;;5.40;3.40;;;;;;;;;;5024369;28;20030;-51
2022/05/17 03:55:18;;;;;;;6.07;3.17;;;;;;;;;;5022721;28;20294;-51
2022/05/17 03:57:43;;;;;;;5.38;3.40;;;;;;;;;;5023290;28;20554;-52
2022/05/17 04:00:10;;;;;;;5.93;3.37;;;;;;;;;;5037683;28;20052;-51
2022/05/17 04:02:36;;;;;;;4.97;3.53;;;;;;;;;;5022275;28;20263;-51
2022/05/17 04:05:02;;;;;;;7.03;3.67;;;;;;;;;;5020748;28;20039;-51
2022/05/17 04:07:27;;;;;;;4.93;3.10;;;;;;;;;;5037397;28;20067;-51
2022/05/17 04:09:53;;;;;;;11.67;4.17;;;;;;;;;;5024580;28;20029;-51
2022/05/17 04:12:18;;;;;;;5.50;3.63;;;;;;;;;;5022518;28;20025;-51
2022/05/17 04:14:43;;;;;;;5.35;3.25;;;;;;;;;;5037894;28;20037;-50
2022/05/17 04:17:09;;;;;;;5.68;3.47;;;;;;;;;;5014338;28;20014;-50
2022/05/17 04:19:35;;;;;;;7.07;3.80;;;;;;;;;;5017837;28;20112;-51
2022/05/17 04:22:00;;;;;;;5.53;3.45;;;;;;;;;;5020181;28;20029;-50
2022/05/17 04:24:26;;;;;;;6.60;3.17;;;;;;;;;;5022164;28;20033;-50
2022/05/17 04:26:52;;;;;;;5.03;3.80;;;;;;;;;;5033204;28;20033;-50
2022/05/17 04:29:17;;;;;;;6.45;3.30;;;;;;;;;;5024529;28;20041;-52
2022/05/17 04:31:42;;;;;;;5.90;3.80;;;;;;;;;;5021580;28;20554;-53
2022/05/17 04:34:07;;;;;;;6.57;3.70;;;;;;;;;;5022673;28;21553;-51
2022/05/17 04:36:33;;;;;;;5.88;3.72;;;;;;;;;;5022150;28;20275;-52
2022/05/17 04:38:59;;;;;;;5.22;3.53;;;;;;;;;;5034138;28;20400;-52
2022/05/17 04:41:24;;;;;;;7.63;3.75;;;;;;;;;;5020983;28;20010;-51
2022/05/17 04:43:50;;;;;;;5.93;3.90;;;;;;;;;;5020269;28;20028;-51
2022/05/17 04:46:15;;;;;;;6.60;3.73;;;;;;;;;;5017973;28;20021;-51
2022/05/17 04:48:40;;;;;;;7.70;3.93;;;;;;;;;;5011350;28;20736;-51
2022/05/17 04:51:06;;;;;;;6.20;3.83;;;;;;;;;;5005683;28;20101;-52
2022/05/17 04:53:32;;;;;;;7.22;4.10;;;;;;;;;;5008718;28;20624;-51
2022/05/17 04:55:57;;;;;;;7.00;3.63;;;;;;;;;;5017029;28;20107;-51
2022/05/17 04:58:22;;;;;;;5.87;3.67;;;;;;;;;;5017043;28;20105;-50
2022/05/17 05:00:47;;;;;;;8.35;4.18;;;;;;;;;;5014273;28;20300;-50
2022/05/17 05:03:14;;;;;;;6.93;4.47;;;;;;;;;;5009312;28;20024;-50
2022/05/17 05:05:39;;;;;;;8.05;3.78;;;;;;;;;;5006162;28;20280;-50
2022/05/17 05:08:04;;;;;;;7.70;3.70;;;;;;;;;;5014838;28;20029;-50
2022/05/17 05:10:29;;;;;;;8.02;4.20;;;;;;;;;;5022625;28;20028;-50
2022/05/17 05:12:55;;;;;;;6.60;3.80;;;;;;;;;;5016339;28;20095;-54
2022/05/17 05:15:20;;;;;;;9.63;4.17;;;;;;;;;;5023600;28;20041;-52
2022/05/17 05:17:45;;;;;;;8.90;4.10;;;;;;;;;;5020288;28;20035;-53
2022/05/17 05:20:12;;;;;;;9.43;4.27;;;;;;;;;;5023241;28;20064;-53
2022/05/17 05:22:37;;;;;;;6.03;3.88;;;;;;;;;;5019542;28;20443;-52
2022/05/17 05:25:03;;;;;;;5.53;4.20;;;;;;;;;;5007580;28;20083;-52
2022/05/17 05:27:34;;;;;;;7.80;4.20;;;;;;;;;;5022750;28;20047;-51
2022/05/17 05:30:00;;;;;;;7.90;3.88;;;;;;;;;;5025986;28;20122;-54
2022/05/17 05:32:25;;;;;;;8.82;4.53;;;;;;;;;;5035654;28;20547;-55
2022/05/17 05:34:50;;;;;;;7.07;3.92;;;;;;;;;;5020715;28;20443;-60
2022/05/17 05:37:16;;;;;;;6.57;4.30;;;;;;;;;;5011291;28;20057;-56
2022/05/17 05:39:41;;;;;;;8.55;4.43;;;;;;;;;;5014085;28;20052;-55
2022/05/17 05:42:06;;;;;;;10.68;4.28;;;;;;;;;;5019175;28;20508;-55
2022/05/17 05:44:32;;;;;;;9.68;4.65;;;;;;;;;;5013472;28;20022;-56
2022/05/17 05:46:58;;;;;;;6.85;4.28;;;;;;;;;;5017167;28;20040;-54
2022/05/17 05:49:23;;;;;;;7.10;4.37;;;;;;;;;;5016343;28;20014;-54
2022/05/17 05:51:48;;;;;;;8.43;4.27;;;;;;;;;;5011118;28;21162;-57
2022/05/17 05:54:13;;;;;;;5.93;3.90;;;;;;;;;;5018905;28;20535;-53
2022/05/17 05:56:39;;;;;;;8.33;3.90;;;;;;;;;;5016647;28;20264;-55
2022/05/17 05:59:04;;;;;;;6.27;4.03;;;;;;;;;;5007038;28;20029;-54
2022/05/17 06:01:30;;;;;;;6.60;3.90;;;;;;;;;;5008568;28;20032;-54
2022/05/17 06:03:55;;;;;;;6.55;3.70;;;;;;;;;;5003559;28;20037;-54
2022/05/17 06:06:20;;;;;;;6.53;3.80;;;;;;;;;;5017069;28;20108;-53
2022/05/17 06:08:45;;;;;;;6.43;3.20;;;;;;;;;;5016557;28;20260;-53
2022/05/17 06:11:11;;;;;;;5.87;3.60;;;;;;;;;;5019956;28;20415;-54
2022/05/17 06:13:36;;;;;;;7.43;3.47;;;;;;;;;;5013150;28;20881;-54
2022/05/17 06:16:01;;;;;;;6.45;3.15;;;;;;;;;;5034462;28;20330;-53
2022/05/17 06:18:27;;;;;;;5.25;3.30;;;;;;;;;;5018306;28;20033;-54
2022/05/17 06:20:52;;;;;;;6.13;3.17;;;;;;;;;;5019223;28;20667;-52
2022/05/17 06:23:18;;;;;;;5.68;3.28;;;;;;;;;;5009430;28;20386;-54
2022/05/17 06:25:43;;;;;;;5.47;2.85;;;;;;;;;;5011675;28;20269;-53
2022/05/17 06:28:09;;;;;;;5.60;3.40;;;;;;;;;;5020360;28;20491;-55
2022/05/17 06:30:34;;;;;;;7.82;3.17;;;;;;;;;;5021983;28;20133;-54
2022/05/17 06:33:01;;;;;;;6.00;3.23;;;;;;;;;;5016831;28;20029;-53
2022/05/17 06:35:26;;;;;;;4.93;3.03;;;;;;;;;;5015458;28;20099;-54
2022/05/17 06:37:52;;;;;;;6.53;3.42;;;;;;;;;;5003307;28;20117;-55
2022/05/17 06:40:18;;;;;;;5.03;3.30;;;;;;;;;;5030431;28;20727;-55
2022/05/17 06:42:43;;;;;;;6.30;3.92;;;;;;;;;;5019979;28;20656;-54
2022/05/17 06:45:08;;;;;;;6.00;3.40;;;;;;;;;;5016151;28;20053;-53
2022/05/17 06:47:34;;;;;;;10.25;3.95;;;;;;;;;;5028065;28;20264;-54
2022/05/17 06:49:59;;;;;;;8.17;3.63;;;;;;;;;;5016280;28;20107;-55
2022/05/17 06:52:27;;;;;;;5.88;3.30;;;;;;;;;;5016373;28;20126;-54
2022/05/17 06:54:53;;;;;;;6.53;3.70;;;;;;;;;;5013856;28;20415;-53
2022/05/17 06:57:18;;;;;;;6.83;3.80;;;;;;;;;;5016394;28;20013;-52
2022/05/17 06:59:43;;;;;;;8.80;3.83;;;;;;;;;;5018083;28;20638;-55
2022/05/17 07:02:09;;;;;;;4.40;3.40;;;;;;;;;;5019370;28;20017;-52
2022/05/17 07:04:34;;;;;;;7.03;3.90;;;;;;;;;;5018507;28;20527;-54
2022/05/17 07:07:00;;;;;;;9.57;3.92;;;;;;;;;;5019661;28;20271;-54
2022/05/17 07:09:25;;;;;;;5.85;3.65;;;;;;;;;;5018394;28;20029;-54
2022/05/17 07:14:37;;;;;;;5.78;3.60;;;;;;;;;;5018871;28;20067;-54
2022/05/17 07:17:03;;;;;;;6.40;4.07;;;;;;;;;;5033767;28;20030;-53
2022/05/17 07:19:30;;;;;;;9.98;4.47;;;;;;;;;;5023617;28;20022;-55
2022/05/17 07:21:55;;;;;;;10.85;4.53;;;;;;;;;;5023525;28;20064;-53
2022/05/17 07:24:21;;;;;;;8.43;4.43;;;;;;;;;;5022358;28;20049;-55
2022/05/17 07:26:46;;;;;;;11.97;4.80;;;;;;;;;;5022352;28;20309;-53
2022/05/17 07:29:11;;;;;;;9.50;4.70;;;;;;;;;;5021816;28;20053;-55
2022/05/17 07:31:36;;;;;;;8.13;3.97;;;;;;;;;;5009346;28;20280;-54
2022/05/17 07:34:03;;;;;;;7.87;4.13;;;;;;;;;;5003025;28;20026;-51
2022/05/17 07:36:28;;;;;;;8.88;4.10;;;;;;;;;;5002616;28;20540;-53
2022/05/17 07:38:54;;;;;;;7.68;4.15;;;;;;;;;;5017807;28;20132;-55
2022/05/17 07:41:19;;;;;;;9.40;4.50;;;;;;;;;;5020391;28;20074;-53
2022/05/17 07:43:44;;;;;;;12.55;4.75;;;;;;;;;;5018685;28;20028;-53
2022/05/17 07:46:09;;;;;;;6.77;3.80;;;;;;;;;;5017826;28;20133;-53
2022/05/17 07:48:35;;;;;;;6.03;4.33;;;;;;;;;;5008523;28;20060;-52
2022/05/17 07:51:00;;;;;;;7.40;3.85;;;;;;;;;;5013042;28;20268;-54
2022/05/17 07:53:26;;;;;;;8.60;4.35;;;;;;;;;;5016560;28;20559;-53
2022/05/17 07:55:51;;;;;;;12.05;3.92;;;;;;;;;;5016084;28;20497;-52
2022/05/17 07:58:16;;;;;;;7.70;3.58;;;;;;;;;;5017978;28;20032;-52
2022/05/17 08:00:42;;;;;;;6.47;4.07;;;;;;;;;;5017983;28;20025;-52
2022/05/17 08:03:08;;;;;;;8.10;4.07;;;;;;;;;;5013215;28;20547;-54
2022/05/17 08:05:34;;;;;;;6.20;3.58;;;;;;;;;;5017496;28;20599;-52
2022/05/17 08:07:59;;;;;;;7.22;3.58;;;;;;;;;;5017137;28;20029;-52
2022/05/17 08:10:24;;;;;;;5.87;3.70;;;;;;;;;;5017825;28;20018;-54
2022/05/17 08:12:50;;;;;;;6.47;3.50;;;;;;;;;;5010192;28;20025;-52
2022/05/17 08:15:15;;;;;;;7.55;3.70;;;;;;;;;;5012673;28;20048;-53
2022/05/17 08:17:40;;;;;;;5.43;3.65;;;;;;;;;;5004330;28;20021;-52
2022/05/17 08:20:12;;;;;;;6.60;3.40;;;;;;;;;;5014679;28;20370;-53
2022/05/17 08:22:41;;;;;;;8.15;3.42;;;;;;;;;;5015370;28;20260;-53
2022/05/17 08:27:50;;;;;;;5.85;3.58;;;;;;;;;;5022271;28;20110;-54
2022/05/17 08:30:16;;;;;;;6.55;3.80;;;;;;;;;;5017683;28;20512;-53
2022/05/17 08:33:17;;;;;;;5.75;3.47;;;;;;;;;;5022406;28;20018;-54
2022/05/17 08:35:43;;;;;;;5.75;3.95;;;;;;;;;;5022177;28;20416;-53
2022/05/17 08:38:09;;;;;;;5.40;3.92;;;;;;;;;;5022212;28;20471;-53
2022/05/17 08:40:38;;;;;;;8.77;4.20;;;;;;;;;;5020678;28;20021;-52
2022/05/17 08:43:09;;;;;;;4.72;3.15;;;;;;;;;;5021393;28;20090;-54
2022/05/17 08:45:37;;;;;;;6.40;3.60;;;;;;;;;;5020219;28;20025;-55
2022/05/17 08:48:04;;;;;;;4.50;3.30;;;;;;;;;;5019727;28;20028;-53
2022/05/17 08:50:30;;;;;;;5.90;3.38;;;;;;;;;;5015846;28;20078;-53
2022/05/17 08:52:56;;;;;;;6.45;3.50;;;;;;;;;;5019313;28;20063;-54
2022/05/17 08:55:22;;;;;;;5.90;3.85;;;;;;;;;;5018344;28;20466;-55
2022/05/17 08:57:49;;;;;;;5.80;3.47;;;;;;;;;;5022491;28;20018;-54
2022/05/17 09:00:31;;;;;;;6.93;3.50;;;;;;;;;;5022548;28;20017;-54
2022/05/17 09:03:00;;;;;;;7.15;3.22;;;;;;;;;;5019040;28;20018;-54
2022/05/17 09:05:36;;;;;;;5.03;3.47;;;;;;;;;;5019473;28;20026;-54
2022/05/17 09:08:08;;;;;;;4.78;3.22;;;;;;;;;;5019402;28;20025;-54
2022/05/17 09:10:41;;;;;;;5.65;3.22;;;;;;;;;;5032581;28;20109;-54
2022/05/17 09:13:09;;;;;;;4.88;3.30;;;;;;;;;;5028506;28;20029;-54
2022/05/17 09:15:34;;;;;;;6.75;3.08;;;;;;;;;;5008726;28;20022;-54
2022/05/17 09:18:01;;;;;;;6.17;3.20;;;;;;;;;;5021993;28;20080;-53
2022/05/17 09:20:28;;;;;;;4.97;3.00;;;;;;;;;;5036069;28;20265;-54
2022/05/17 09:22:53;;;;;;;6.43;2.85;;;;;;;;;;5014923;28;20014;-53
2022/05/17 09:25:22;;;;;;;4.27;2.77;;;;;;;;;;5023137;28;20064;-54
2022/05/17 09:27:49;;;;;;;3.50;2.77;;;;;;;;;;5019757;28;20032;-54
2022/05/17 09:30:23;;;;;;;3.97;2.80;;;;;;;;;;5024540;28;20921;-53
2022/05/17 09:32:49;;;;;;;5.13;2.83;;;;;;;;;;5018028;28;20010;-57
2022/05/17 09:35:18;;;;;;;4.20;2.85;;;;;;;;;;5038583;28;20032;-54
2022/05/17 09:37:54;;;;;;;5.72;2.72;;;;;;;;;;5020265;28;20018;-52
2022/05/17 09:40:23;;;;;;;4.93;2.65;;;;;;;;;;5020830;28;20582;-54
2022/05/17 09:42:57;;;;;;;4.63;2.83;;;;;;;;;;5010941;28;20032;-54
2022/05/17 09:45:41;;;;;;;4.90;3.00;;;;;;;;;;5007051;28;20088;-54
2022/05/17 09:48:07;;;;;;;5.80;2.60;;;;;;;;;;5006267;28;20029;-54
2022/05/17 09:53:21;;;;;;;6.72;2.30;;;;;;;;;;5006627;28;20893;-55
2022/05/17 09:55:54;;;;;;;6.80;2.70;;;;;;;;;;5016267;28;20034;-54
2022/05/17 09:58:39;;;;;;;4.22;2.50;;;;;;;;;;5016735;28;20009;-53
2022/05/17 10:01:11;;;;;;;3.42;2.40;;;;;;;;;;5019753;28;20033;-54
2022/05/17 10:03:39;;;;;;;3.83;2.30;;;;;;;;;;5020984;28;20421;-53
2022/05/17 10:06:04;;;;;;;3.58;2.30;;;;;;;;;;5007798;28;20373;-54
2022/05/17 10:08:29;;;;;;;3.83;2.35;;;;;;;;;;5013526;28;20499;-54
2022/05/17 10:11:13;;;;;;;4.90;2.57;;;;;;;;;;5018683;28;20013;-56
2022/05/17 10:13:46;;;;;;;4.60;2.63;;;;;;;;;;5019378;28;20292;-54
2022/05/17 10:16:13;;;;;;;4.63;2.60;;;;;;;;;;5010447;28;20022;-52
2022/05/17 10:18:42;;;;;;;3.92;2.55;;;;;;;;;;5019065;28;20075;-51
2022/05/17 10:21:16;;;;;;;5.47;2.40;;;;;;;;;;5018019;28;20100;-56
2022/05/17 10:24:14;;;;;;;4.85;2.42;;;;;;;;;;5017018;28;20021;-53
2022/05/17 10:26:42;;;;;;;3.20;2.40;;;;;;;;;;5003409;28;20042;-54
2022/05/17 10:29:27;;;;;;;4.78;2.45;;;;;;;;;;5019348;28;20136;-55
2022/05/17 10:32:09;;;;;;;5.10;2.10;;;;;;;;;;5008442;28;20588;-54
2022/05/17 10:34:45;;;;;;;4.72;2.10;;;;;;;;;;5011890;28;20033;-52
2022/05/17 10:37:15;;;;;;;3.58;2.13;;;;;;;;;;5035448;28;20052;-54
2022/05/17 10:39:59;;;;;;;3.92;2.15;;;;;;;;;;5021657;28;20025;-53
2022/05/17 10:42:24;;;;;;;3.40;2.20;;;;;;;;;;5021232;28;20106;-53
2022/05/17 10:44:53;;;;;;;3.27;2.20;;;;;;;;;;5011328;28;20087;-53
2022/05/17 10:47:37;;;;;;;2.80;2.08;;;;;;;;;;5021144;28;20019;-55
2022/05/17 10:50:05;;;;;;;3.72;2.53;;;;;;;;;;5019219;28;20076;-55
2022/05/17 10:52:44;;;;;;;3.25;2.08;;;;;;;;;;5005665;28;20045;-53
2022/05/17 10:55:32;;;;;;;2.50;2.30;;;;;;;;;;5031367;28;20057;-52
2022/05/17 10:57:59;;;;;;;4.35;2.20;;;;;;;;;;5019181;28;20029;-53
2022/05/17 11:00:35;;;;;;;3.20;2.33;;;;;;;;;;5018708;28;20093;-54
2022/05/17 11:03:29;;;;;;;3.92;2.00;;;;;;;;;;5034316;28;20063;-52
2022/05/17 11:06:02;;;;;;;2.58;1.90;;;;;;;;;;5018757;28;20732;-54
2022/05/17 11:08:33;;;;;;;3.83;1.80;;;;;;;;;;5033340;28;20020;-53
2022/05/17 11:10:58;;;;;;;2.92;1.85;;;;;;;;;;5018945;28;20053;-54
2022/05/17 11:13:25;;;;;;;3.23;2.20;;;;;;;;;;5009909;28;20076;-53
2022/05/17 11:15:55;;;;;;;5.68;1.95;;;;;;;;;;5005142;28;20030;-52
2022/05/17 11:18:33;;;;;;;3.40;1.90;;;;;;;;;;5004052;28;20097;-52
2022/05/17 11:21:02;;;;;;;3.17;1.90;;;;;;;;;;5004104;28;20032;-55
2022/05/17 11:23:28;;;;;;;;;;;;;;;;;;5005341;28;20045;-52
2022/05/17 11:25:56;;;;;;;4.00;2.22;;;;;;;;;;5007489;28;20296;-53
2022/05/17 11:28:30;;;;;;;2.53;1.70;;;;;;;;;;5010885;28;20052;-53
2022/05/17 11:30:57;;;;;;;3.38;2.30;;;;;;;;;;5020967;28;20120;-54
2022/05/17 11:33:22;;;;;;;3.28;1.80;;;;;;;;;;5035408;28;20063;-54
2022/05/17 11:35:53;;;;;;;3.90;1.70;;;;;;;;;;5017534;28;20029;-55
2022/05/17 11:38:39;;;;;;;2.35;1.60;;;;;;;;;;5018609;28;20026;-53
2022/05/17 11:41:14;;;;;;;2.85;1.77;;;;;;;;;;5015198;28;20053;-53
2022/05/17 11:43:45;;;;;;;3.67;1.92;;;;;;;;;;5018397;28;20010;-53
2022/05/17 11:46:29;;;;;;;3.15;1.83;;;;;;;;;;5019702;28;20550;-54
2022/05/17 11:48:54;;;;;;;2.03;1.65;;;;;;;;;;5012357;28;20382;-54
2022/05/17 11:51:21;;;;;;;3.30;1.70;;;;;;;;;;5024739;28;20087;-54
2022/05/17 11:53:50;;;;;;;2.95;1.88;;;;;;;;;;5024851;28;20060;-52
2022/05/17 11:56:21;;;;;;;2.22;1.73;;;;;;;;;;5021767;28;20056;-53
2022/05/17 11:58:53;;;;;;;3.70;1.80;;;;;;;;;;5040694;28;20013;-56
2022/05/17 12:01:31;;;;;;;2.22;1.85;;;;;;;;;;5041126;28;20021;-54
2022/05/17 12:03:57;;;;;;;3.60;1.80;;;;;;;;;;5024346;28;20021;-53
2022/05/17 12:06:28;;;;;;;2.70;1.90;;;;;;;;;;5022043;28;20053;-55
2022/05/17 12:08:53;;;;;;;2.70;1.90;;;;;;;;;;5016399;28;20025;-54
2022/05/17 12:11:37;;;;;;;2.00;1.60;;;;;;;;;;5010543;28;20048;-54
2022/05/17 12:14:08;;;;;;;3.92;1.95;;;;;;;;;;5005971;28;20289;-53
2022/05/17 12:16:33;;;;;;;2.28;1.52;;;;;;;;;;5021636;28;20029;-53
2022/05/17 12:19:04;;;;;;;2.95;1.60;;;;;;;;;;5010154;28;20028;-54
2022/05/17 12:21:41;;;;;;;2.05;1.55;;;;;;;;;;5011659;28;20489;-53
2022/05/17 12:24:06;;;;;;;2.45;1.80;;;;;;;;;;5008256;28;20029;-53
2022/05/17 12:26:41;;;;;;;4.23;1.87;;;;;;;;;;5008575;28;20049;-53
2022/05/17 12:31:56;;;;;;;2.30;1.80;;;;;;;;;;5018438;28;20953;-54
2022/05/17 12:34:21;;;;;;;2.25;1.70;;;;;;;;;;5020950;28;20254;-54
2022/05/17 12:36:47;;;;;;;3.85;2.38;;;;;;;;;;5021170;28;20471;-52
2022/05/17 12:44:54;;;;;;;3.58;1.70;;;;;;;;;;5037383;28;20175;-54
2022/05/17 12:47:24;;;;;;;2.38;1.60;;;;;;;;;;5029611;28;20051;-55
2022/05/17 12:49:52;;;;;;;2.38;1.95;;;;;;;;;;5008602;28;20531;-54
2022/05/17 12:52:19;;;;;;;2.60;1.83;;;;;;;;;;5007451;28;20042;-56
2022/05/17 12:54:47;;;;;;;2.13;1.70;;;;;;;;;;5040205;28;20045;-54
2022/05/17 12:57:22;;;;;;;2.65;1.70;;;;;;;;;;5005762;28;20104;-53
2022/05/17 12:59:47;;;;;;;3.20;2.05;;;;;;;;;;5005772;28;20497;-53
2022/05/17 13:02:19;;;;;;;3.50;2.17;;;;;;;;;;5006500;28;20044;-55
2022/05/17 13:04:44;;;;;;;3.05;1.63;;;;;;;;;;5010069;28;20348;-55
2022/05/17 13:07:13;;;;;;;2.60;1.50;;;;;;;;;;5007881;28;20217;-52
2022/05/17 13:09:51;;;;;;;2.45;1.73;;;;;;;;;;5008833;28;20060;-54
2022/05/17 13:12:17;;;;;;;2.83;1.60;;;;;;;;;;5017565;28;20124;-53
2022/05/17 13:14:42;;;;;;;2.50;1.73;;;;;;;;;;5020472;28;20105;-54
2022/05/17 13:17:07;;;;;;;1.80;1.50;;;;;;;;;;5020037;28;20056;-54
2022/05/17 13:19:32;;;;;;;2.83;1.40;;;;;;;;;;5022055;28;20033;-54
2022/05/17 13:21:58;;;;;;;2.88;1.52;;;;;;;;;;5022829;28;20041;-54
2022/05/17 13:24:27;;;;;;;3.20;2.00;;;;;;;;;;5007708;28;20481;-52
2022/05/17 13:26:56;;;;;;;3.38;1.63;;;;;;;;;;5008435;28;20202;-52
2022/05/17 13:29:29;;;;;;;3.53;1.60;;;;;;;;;;5008411;28;20146;-53
2022/05/17 13:31:56;;;;;;;2.53;1.67;;;;;;;;;;5007118;28;20066;-55
2022/05/17 13:34:25;;;;;;;2.20;1.60;;;;;;;;;;5006866;28;20114;-54
2022/05/17 13:36:54;;;;;;;2.30;1.57;;;;;;;;;;5005408;28;20029;-53
2022/05/17 13:39:26;;;;;;;2.40;1.70;;;;;;;;;;5006959;28;20029;-53
2022/05/17 13:41:51;;;;;;;2.63;1.80;;;;;;;;;;5005246;28;20026;-54
2022/05/17 13:44:30;;;;;;;2.70;1.57;;;;;;;;;;5005966;28;20183;-55
2022/05/17 13:46:55;;;;;;;2.78;1.67;;;;;;;;;;5007656;28;20021;-54
2022/05/17 13:49:23;;;;;;;2.17;1.57;;;;;;;;;;5007178;28;20017;-55
2022/05/17 13:51:49;;;;;;;2.38;1.70;;;;;;;;;;5004239;28;20018;-53
2022/05/17 13:54:31;;;;;;;3.00;1.77;;;;;;;;;;5007659;28;20033;-54
2022/05/17 13:57:00;;;;;;;3.40;1.60;;;;;;;;;;5006056;28;20664;-54
2022/05/17 13:59:27;;;;;;;1.63;1.40;;;;;;;;;;5023523;28;20022;-53
2022/05/17 14:01:53;;;;;;;2.05;1.58;;;;;;;;;;5009626;28;20680;-54
2022/05/17 14:04:42;;;;;;;2.00;1.50;;;;;;;;;;5008858;28;20106;-53
2022/05/17 14:07:19;;;;;;;1.60;1.40;;;;;;;;;;5005297;28;20034;-54
2022/05/17 14:12:29;;;;;;;2.13;1.50;;;;;;;;;;5002267;28;20079;-53
2022/05/17 14:14:54;;;;;;;2.23;1.60;;;;;;;;;;5008513;28;20045;-54
2022/05/17 14:17:23;;;;;;;1.73;1.50;;;;;;;;;;5004698;28;20279;-53
2022/05/17 14:19:52;;;;;;;3.88;1.60;;;;;;;;;;5009481;28;20079;-52
2022/05/17 14:22:17;;;;;;;3.03;1.40;;;;;;;;;;5010247;28;20010;-53
2022/05/17 14:24:42;;;;;;;3.60;1.60;;;;;;;;;;5006668;28;20048;-52
2022/05/17 14:27:08;;;;;;;2.55;1.60;;;;;;;;;;5008246;28;20257;-55
2022/05/17 14:29:34;;;;;;;2.80;1.70;;;;;;;;;;5023229;28;20064;-53
2022/05/17 14:32:01;;;;;;;2.50;1.33;;;;;;;;;;5010300;28;20216;-54
2022/05/17 14:34:26;;;;;;;1.95;1.45;;;;;;;;;;5031199;28;20033;-54
2022/05/17 14:36:51;;;;;;;3.53;1.42;;;;;;;;;;5032550;28;20025;-53
2022/05/17 14:39:17;;;;;;;2.53;1.60;;;;;;;;;;5006902;28;20045;-53
2022/05/17 14:41:43;;;;;;;2.95;1.55;;;;;;;;;;5006244;28;20269;-53
2022/05/17 14:44:08;;;;;;;3.15;1.77;;;;;;;;;;5006909;28;20440;-53
2022/05/17 14:46:34;;;;;;;2.20;1.30;;;;;;;;;;5005967;28;20010;-54
2022/05/17 14:48:59;;;;;;;2.15;1.60;;;;;;;;;;5005332;28;20032;-53
2022/05/17 14:51:25;;;;;;;2.70;1.40;;;;;;;;;;5022619;28;20750;-53
2022/05/17 14:53:50;;;;;;;3.03;1.60;;;;;;;;;;5024416;28;20292;-52
2022/05/17 14:56:16;;;;;;;3.33;1.60;;;;;;;;;;5012721;28;20413;-55
2022/05/17 14:58:41;;;;;;;2.50;1.40;;;;;;;;;;5016660;28;20272;-52
2022/05/17 15:01:06;;;;;;;2.75;1.80;;;;;;;;;;5010957;28;20116;-53
2022/05/17 15:03:36;;;;;;;2.78;1.58;;;;;;;;;;5014672;28;20490;-53
2022/05/17 15:06:01;;;;;;;;;;;;;;;;;;5019680;28;20025;-54